createdAt,value
2022-09-15T00:00:14.405Z,18.00
2022-09-15T00:01:14.681Z,18.02
2022-09-15T00:02:15.087Z,18.04
2022-09-15T00:03:15.234Z,18.06
2022-09-15T00:04:15.549Z,18.06
2022-09-15T00:05:15.826Z,18.00
2022-09-15T00:06:16.100Z,17.99
2022-09-15T00:07:16.413Z,18.04
2022-09-15T00:08:16.682Z,18.04
2022-09-15T00:09:16.961Z,18.04
2022-09-15T00:10:17.230Z,18.03
2022-09-15T00:11:17.512Z,18.00
2022-09-15T00:12:17.821Z,18.00
2022-09-15T00:13:18.109Z,17.99
2022-09-15T00:14:18.389Z,17.99
2022-09-15T00:15:18.702Z,18.00
2022-09-15T00:16:19.051Z,18.03
2022-09-15T00:17:19.240Z,18.04
2022-09-15T00:18:19.519Z,18.02
2022-09-15T00:19:19.790Z,18.00
2022-09-15T00:20:20.069Z,18.03
2022-09-15T00:21:20.352Z,18.04
2022-09-15T00:22:20.671Z,18.07
2022-09-15T00:23:20.959Z,18.09
2022-09-15T00:24:21.238Z,18.09
2022-09-15T00:25:21.562Z,18.09
2022-09-15T00:26:21.829Z,18.12
2022-09-15T00:27:22.087Z,18.13
2022-09-15T00:28:22.340Z,18.12
2022-09-15T00:29:22.619Z,18.15
2022-09-15T00:30:22.939Z,18.13
2022-09-15T00:31:23.257Z,18.15
2022-09-15T00:32:23.520Z,18.13
2022-09-15T00:33:23.795Z,18.15
2022-09-15T00:34:24.077Z,18.17
2022-09-15T00:35:24.395Z,18.17
2022-09-15T00:36:24.660Z,18.10
2022-09-15T00:37:24.937Z,18.09
2022-09-15T00:38:25.206Z,18.10
2022-09-15T00:39:25.500Z,18.06
2022-09-15T00:40:25.813Z,18.06
2022-09-15T00:41:26.021Z,18.07
2022-09-15T00:42:26.295Z,18.09
2022-09-15T00:43:26.552Z,18.12
2022-09-15T00:44:26.830Z,18.09
2022-09-15T00:45:27.148Z,18.09
2022-09-15T00:46:27.437Z,18.09
2022-09-15T00:47:27.700Z,18.03
2022-09-15T00:48:27.984Z,18.02
2022-09-15T00:49:28.242Z,17.99
2022-09-15T00:50:28.501Z,18.04
2022-09-15T00:51:28.799Z,18.06
2022-09-15T00:52:29.103Z,18.07
2022-09-15T02:56:37.100Z,17.84
2022-09-15T02:57:37.266Z,17.87
2022-09-15T02:58:37.559Z,17.84
2022-09-15T02:59:37.828Z,17.79
2022-09-15T03:00:38.160Z,17.81
2022-09-15T03:01:38.548Z,17.76
2022-09-15T03:02:38.725Z,17.73
2022-09-15T03:03:42.845Z,17.71
2022-09-15T03:04:39.306Z,17.71
2022-09-15T03:05:39.578Z,17.69
2022-09-15T03:06:39.857Z,17.69
2022-09-15T03:07:40.126Z,17.64
2022-09-15T03:08:40.435Z,17.66
2022-09-15T03:09:40.703Z,17.67
2022-09-15T03:10:40.976Z,17.66
2022-09-15T03:11:41.248Z,17.66
2022-09-15T03:12:41.487Z,17.62
2022-09-15T03:13:41.770Z,17.63
2022-09-15T03:14:42.085Z,17.57
2022-09-15T03:15:42.338Z,17.55
2022-09-15T03:16:42.664Z,17.55
2022-09-15T03:17:42.835Z,17.53
2022-09-15T03:18:43.081Z,17.51
2022-09-15T03:19:43.376Z,17.50
2022-09-15T03:20:43.669Z,17.51
2022-09-15T03:21:43.946Z,17.50
2022-09-15T03:22:44.216Z,17.51
2022-09-15T03:23:44.600Z,17.51
2022-09-15T03:24:44.788Z,17.50
2022-09-15T03:25:45.046Z,17.51
2022-09-15T03:26:45.309Z,17.46
2022-09-15T03:27:45.558Z,17.44
2022-09-15T03:28:45.807Z,17.44
2022-09-15T03:29:46.059Z,17.47
2022-09-15T03:30:46.362Z,17.46
2022-09-15T03:31:46.717Z,17.48
2022-09-15T03:32:46.869Z,17.50
2022-09-15T03:33:47.126Z,17.53
2022-09-15T03:34:47.385Z,17.50
2022-09-15T03:35:47.638Z,17.51
2022-09-15T03:36:47.922Z,17.51
2022-09-15T03:37:48.166Z,17.48
2022-09-15T03:38:48.397Z,17.47
2022-09-15T03:39:48.681Z,17.46
2022-09-15T03:40:48.959Z,17.46
2022-09-15T03:41:49.238Z,17.44
2022-09-15T03:42:49.526Z,17.46
2022-09-15T03:43:49.790Z,17.47
2022-09-15T03:44:50.113Z,17.47
2022-09-15T03:45:50.417Z,17.48
2022-09-15T03:46:50.711Z,17.47
2022-09-15T03:47:50.948Z,17.48
2022-09-15T03:48:51.313Z,17.47
2022-09-15T03:49:51.598Z,17.46
2022-09-15T03:50:51.845Z,17.46
2022-09-15T03:51:52.076Z,17.44
2022-09-15T03:52:56.716Z,17.43
2022-09-15T03:53:53.612Z,17.44
2022-09-15T03:54:52.803Z,17.44
2022-09-15T03:55:53.071Z,17.44
2022-09-15T03:56:53.330Z,17.44
2022-09-15T03:57:53.626Z,17.44
2022-09-15T03:58:53.890Z,17.46
2022-09-15T03:59:54.167Z,17.46
2022-09-15T04:00:54.471Z,17.44
2022-09-15T04:01:54.800Z,17.40
2022-09-15T04:02:55.100Z,17.43
2022-09-15T04:03:55.348Z,17.43
2022-09-15T04:04:55.617Z,17.43
2022-09-15T04:05:55.900Z,17.41
2022-09-15T04:06:56.147Z,17.38
2022-09-15T04:07:56.406Z,17.38
2022-09-15T04:08:56.659Z,17.36
2022-09-15T04:09:56.897Z,17.35
2022-09-15T04:10:57.205Z,17.36
2022-09-15T04:11:57.484Z,17.40
2022-09-15T04:12:57.773Z,17.41
2022-09-15T04:13:58.031Z,17.43
2022-09-15T04:14:58.295Z,17.46
2022-09-15T04:15:58.588Z,17.48
2022-09-15T04:16:58.870Z,17.50
2022-09-15T04:17:59.149Z,17.54
2022-09-15T04:18:59.398Z,17.55
2022-09-15T04:19:59.652Z,17.63
2022-09-15T04:20:59.889Z,17.64
2022-09-15T04:22:00.122Z,17.64
2022-09-15T04:23:00.421Z,17.66
2022-09-15T04:24:00.658Z,17.64
2022-09-15T04:25:00.892Z,17.64
2022-09-15T04:26:01.140Z,17.64
2022-09-15T04:27:01.493Z,17.63
2022-09-15T04:28:01.783Z,17.67
2022-09-15T04:29:04.475Z,17.66
2022-09-15T04:30:02.255Z,17.67
2022-09-15T04:31:02.575Z,17.69
2022-09-15T04:32:02.851Z,17.69
2022-09-15T04:33:03.126Z,17.70
2022-09-15T04:34:03.390Z,17.71
2022-09-15T04:35:03.640Z,17.69
2022-09-15T04:36:03.879Z,17.69
2022-09-15T04:37:04.113Z,17.69
2022-09-15T04:38:04.370Z,17.70
2022-09-15T04:39:04.632Z,17.73
2022-09-15T04:40:05.027Z,17.73
2022-09-15T04:41:05.190Z,17.71
2022-09-15T04:42:05.449Z,17.73
2022-09-15T04:43:05.751Z,17.74
2022-09-15T04:44:06.041Z,17.71
2022-09-15T04:45:06.289Z,17.71
2022-09-15T04:46:06.543Z,17.73
2022-09-15T04:47:06.821Z,17.71
2022-09-15T04:48:07.077Z,17.71
2022-09-15T04:49:07.375Z,17.71
2022-09-15T04:50:07.665Z,17.70
2022-09-15T04:51:07.939Z,17.69
2022-09-15T04:52:09.778Z,17.69
2022-09-15T04:53:08.485Z,17.69
2022-09-15T04:54:08.739Z,17.71
2022-09-15T04:55:09.015Z,17.76
2022-09-15T04:56:09.326Z,17.79
2022-09-15T04:57:09.574Z,17.76
2022-09-15T04:58:09.831Z,17.76
2022-09-15T04:59:10.101Z,17.76
2022-09-15T05:00:10.409Z,17.74
2022-09-15T05:01:10.706Z,17.71
2022-09-15T05:02:10.935Z,17.69
2022-09-15T05:03:11.198Z,17.67
2022-09-15T05:04:11.467Z,17.64
2022-09-15T05:05:11.760Z,17.63
2022-09-15T05:06:12.018Z,17.57
2022-09-15T05:07:12.272Z,17.55
2022-09-15T05:08:12.527Z,17.55
2022-09-15T05:09:12.784Z,17.54
2022-09-15T05:10:13.073Z,17.54
2022-09-15T05:11:13.321Z,17.53
2022-09-15T05:12:13.584Z,17.53
2022-09-15T05:13:13.825Z,17.53
2022-09-15T05:14:14.055Z,17.51
2022-09-15T05:15:14.313Z,17.51
2022-09-15T05:16:14.671Z,17.51
2022-09-15T05:17:14.853Z,17.50
2022-09-15T05:18:15.122Z,17.48
2022-09-15T05:19:15.385Z,17.51
2022-09-15T05:20:15.634Z,17.51
2022-09-15T05:21:15.882Z,17.51
2022-09-15T05:22:16.177Z,17.51
2022-09-15T05:23:16.419Z,17.50
2022-09-15T05:24:16.712Z,17.53
2022-09-15T05:25:16.966Z,17.54
2022-09-15T05:26:17.193Z,17.57
2022-09-15T05:27:17.452Z,17.59
2022-09-15T05:28:17.700Z,17.59
2022-09-15T05:29:18.000Z,17.62
2022-09-15T05:30:36.923Z,17.59
2022-09-15T05:31:19.537Z,17.59
2022-09-15T05:32:18.738Z,17.62
2022-09-15T05:33:18.996Z,17.63
2022-09-15T05:34:19.292Z,17.64
2022-09-15T05:35:19.563Z,17.64
2022-09-15T05:36:19.819Z,17.66
2022-09-15T05:37:20.095Z,17.63
2022-09-15T05:38:20.348Z,17.64
2022-09-15T05:39:20.601Z,17.64
2022-09-15T05:40:20.944Z,17.64
2022-09-15T05:41:21.092Z,17.64
2022-09-15T05:42:21.477Z,17.66
2022-09-15T05:43:21.734Z,17.69
2022-09-15T05:44:21.978Z,17.67
2022-09-15T05:45:22.236Z,17.70
2022-09-15T05:46:22.558Z,17.71
2022-09-15T05:47:22.753Z,17.73
2022-09-15T05:48:23.000Z,17.74
2022-09-15T05:49:23.228Z,17.76
2022-09-15T05:50:23.476Z,17.76
2022-09-15T05:51:23.729Z,17.78
2022-09-15T05:52:24.013Z,17.82
2022-09-15T05:53:24.256Z,17.82
2022-09-15T05:54:24.509Z,17.85
2022-09-15T05:55:24.763Z,17.87
2022-09-15T05:56:25.015Z,17.89
2022-09-15T05:57:25.300Z,17.91
2022-09-15T05:58:25.544Z,17.94
2022-09-15T05:59:25.806Z,17.97
2022-09-15T06:00:26.060Z,17.99
2022-09-15T06:01:26.307Z,17.99
2022-09-15T06:02:26.673Z,17.99
2022-09-15T06:03:30.793Z,18.00
2022-09-15T06:04:27.078Z,18.02
2022-09-15T06:05:27.360Z,18.04
2022-09-15T06:06:27.618Z,18.02
2022-09-15T06:07:27.876Z,18.03
2022-09-15T06:08:28.171Z,18.03
2022-09-15T06:09:28.463Z,18.03
2022-09-15T06:10:28.712Z,18.04
2022-09-15T06:11:28.976Z,18.03
2022-09-15T06:12:29.253Z,18.03
2022-09-15T06:13:29.496Z,18.07
2022-09-15T06:14:29.775Z,18.09
2022-09-15T06:15:30.020Z,18.10
2022-09-15T06:16:30.304Z,18.17
2022-09-15T06:17:30.573Z,18.21
2022-09-15T06:18:30.833Z,18.25
2022-09-15T06:19:31.097Z,18.25
2022-09-15T06:20:31.384Z,18.22
2022-09-15T06:21:31.629Z,18.22
2022-09-15T06:22:31.889Z,18.21
2022-09-15T06:23:32.133Z,18.21
2022-09-15T06:24:32.387Z,18.18
2022-09-15T06:25:32.651Z,18.13
2022-09-15T06:26:32.920Z,18.13
2022-09-15T06:27:33.196Z,18.09
2022-09-15T06:28:33.441Z,18.09
2022-09-15T06:29:33.684Z,18.09
2022-09-15T06:30:34.028Z,18.04
2022-09-15T06:31:34.403Z,18.04
2022-09-15T06:32:34.624Z,18.04
2022-09-15T06:33:34.863Z,18.06
2022-09-15T06:34:35.101Z,18.07
2022-09-15T06:35:35.349Z,18.09
2022-09-15T06:36:35.617Z,18.09
2022-09-15T06:37:35.911Z,18.07
2022-09-15T06:38:36.214Z,18.09
2022-09-15T06:39:36.468Z,18.12
2022-09-15T06:40:36.705Z,18.15
2022-09-15T06:42:01.178Z,18.17
2022-09-15T06:42:38.305Z,18.17
2022-09-15T06:43:37.649Z,18.18
2022-09-15T06:44:37.895Z,18.18
2022-09-15T06:45:38.245Z,18.22
2022-09-15T06:46:38.590Z,18.19
2022-09-15T06:47:38.771Z,18.21
2022-09-15T06:48:39.169Z,18.21
2022-09-15T06:49:39.404Z,18.21
2022-09-15T06:50:39.649Z,18.25
2022-09-15T06:51:39.996Z,18.29
2022-09-15T06:52:40.238Z,18.33
2022-09-15T06:53:40.605Z,18.34
2022-09-15T06:54:40.860Z,18.34
2022-09-15T06:55:41.125Z,18.34
2022-09-15T06:56:41.365Z,18.33
2022-09-15T06:57:41.651Z,18.31
2022-09-15T06:58:41.943Z,18.31
2022-09-15T06:59:42.116Z,18.34
2022-09-15T07:00:42.520Z,18.37
2022-09-15T07:01:42.764Z,18.39
2022-09-15T07:02:43.201Z,18.37
2022-09-15T07:03:43.390Z,18.39
2022-09-15T07:04:43.610Z,18.40
2022-09-15T07:05:43.863Z,18.42
2022-09-15T07:06:44.085Z,18.46
2022-09-15T07:07:44.435Z,18.49
2022-09-15T07:08:44.736Z,18.54
2022-09-15T07:09:48.792Z,18.57
2022-09-15T07:10:45.276Z,18.62
2022-09-15T07:11:45.548Z,18.64
2022-09-15T07:12:45.782Z,18.70
2022-09-15T07:13:46.130Z,18.73
2022-09-15T07:14:46.384Z,18.73
2022-09-15T07:15:46.627Z,18.74
2022-09-15T07:16:46.980Z,18.73
2022-09-15T07:17:47.163Z,18.76
2022-09-15T07:18:47.413Z,18.74
2022-09-15T07:19:47.649Z,18.73
2022-09-15T07:20:47.902Z,18.73
2022-09-15T07:21:48.241Z,18.72
2022-09-15T07:22:48.605Z,18.70
2022-09-15T07:23:48.862Z,18.72
2022-09-15T07:24:49.119Z,18.74
2022-09-15T07:25:49.353Z,18.76
2022-09-15T07:26:49.588Z,18.77
2022-09-15T07:27:49.886Z,18.79
2022-09-15T07:28:50.132Z,18.83
2022-09-15T07:29:50.383Z,18.86
2022-09-15T07:30:50.636Z,18.86
2022-09-15T07:31:50.935Z,18.86
2022-09-15T07:32:51.228Z,18.87
2022-09-15T07:33:51.674Z,18.90
2022-09-15T07:34:53.657Z,18.90
2022-09-15T07:35:55.757Z,18.91
2022-09-15T07:36:52.279Z,18.92
2022-09-15T07:37:52.528Z,18.95
2022-09-15T07:38:52.907Z,18.97
2022-09-15T07:39:53.099Z,18.98
2022-09-15T07:40:53.374Z,18.99
2022-09-15T07:41:53.638Z,18.99
2022-09-15T07:42:53.885Z,19.05
2022-09-15T07:43:54.164Z,19.05
2022-09-15T07:44:54.416Z,19.02
2022-09-15T07:45:54.706Z,19.05
2022-09-15T07:46:54.980Z,19.06
2022-09-15T07:47:55.209Z,19.06
2022-09-15T07:48:55.576Z,19.02
2022-09-15T07:49:55.801Z,19.05
2022-09-15T07:50:56.142Z,19.05
2022-09-15T07:51:56.410Z,19.05
2022-09-15T07:52:56.662Z,19.02
2022-09-15T07:53:56.903Z,19.02
2022-09-15T07:54:57.177Z,18.99
2022-09-15T07:55:57.411Z,18.97
2022-09-15T07:56:57.684Z,18.98
2022-09-15T07:57:57.944Z,18.95
2022-09-15T07:58:58.185Z,18.92
2022-09-15T07:59:58.453Z,18.94
2022-09-15T08:00:58.721Z,18.90
2022-09-15T08:01:59.028Z,18.90
2022-09-15T08:02:59.245Z,18.90
2022-09-15T08:03:59.501Z,18.92
2022-09-15T08:04:59.728Z,18.92
2022-09-15T08:06:00.068Z,18.94
2022-09-15T08:07:00.415Z,18.97
2022-09-15T08:08:00.679Z,18.99
2022-09-15T08:09:01.226Z,19.01
2022-09-15T08:10:01.273Z,19.02
2022-09-15T08:11:01.524Z,19.01
2022-09-15T08:12:01.808Z,19.06
2022-09-15T08:13:02.041Z,19.08
2022-09-15T08:14:02.313Z,19.10
2022-09-15T08:15:02.556Z,19.11
2022-09-15T08:16:02.903Z,19.10
2022-09-15T08:17:03.106Z,19.11
2022-09-15T08:18:03.342Z,19.14
2022-09-15T08:19:03.627Z,19.13
2022-09-15T08:20:03.858Z,19.15
2022-09-15T08:21:04.106Z,19.15
2022-09-15T08:22:04.350Z,19.14
2022-09-15T08:23:04.583Z,19.15
2022-09-15T08:24:04.855Z,19.15
2022-09-15T08:25:05.085Z,19.15
2022-09-15T08:26:05.402Z,19.17
2022-09-15T08:27:05.738Z,19.14
2022-09-15T08:28:06.065Z,19.17
2022-09-15T08:29:06.383Z,19.15
2022-09-15T08:30:06.613Z,19.14
2022-09-15T08:31:07.021Z,19.15
2022-09-15T08:32:07.204Z,19.17
2022-09-15T08:33:07.437Z,19.15
2022-09-15T08:34:07.662Z,19.15
2022-09-15T08:35:07.999Z,19.15
2022-09-15T08:36:08.221Z,19.15
2022-09-15T08:37:08.584Z,19.14
2022-09-15T08:38:08.832Z,19.13
2022-09-15T08:39:09.056Z,19.11
2022-09-15T08:40:09.337Z,19.13
2022-09-15T08:41:09.585Z,19.14
2022-09-15T08:42:09.858Z,19.13
2022-09-15T08:43:10.086Z,19.11
2022-09-15T08:44:10.455Z,19.10
2022-09-15T08:45:10.671Z,19.06
2022-09-15T08:46:11.036Z,19.08
2022-09-15T08:47:11.275Z,19.11
2022-09-15T08:48:11.542Z,19.10
2022-09-15T08:49:11.817Z,19.11
2022-09-15T08:50:12.052Z,19.14
2022-09-15T08:51:12.272Z,19.15
2022-09-15T08:52:16.361Z,19.13
2022-09-15T08:53:12.906Z,19.11
2022-09-15T08:54:13.156Z,19.11
2022-09-15T08:55:13.426Z,19.08
2022-09-15T08:56:13.664Z,19.10
2022-09-15T08:57:13.898Z,19.06
2022-09-15T08:58:14.130Z,19.02
2022-09-15T08:59:14.459Z,19.05
2022-09-15T09:00:14.738Z,19.08
2022-09-15T09:01:15.043Z,19.08
2022-09-15T09:02:15.214Z,19.06
2022-09-15T09:03:15.531Z,19.05
2022-09-15T09:04:18.142Z,19.05
2022-09-15T09:05:16.113Z,19.05
2022-09-15T09:06:16.351Z,19.06
2022-09-15T09:07:16.589Z,19.06
2022-09-15T09:08:16.823Z,19.08
2022-09-15T09:09:17.062Z,19.08
2022-09-15T09:10:17.508Z,19.06
2022-09-15T09:11:17.678Z,19.06
2022-09-15T09:12:17.906Z,19.06
2022-09-15T09:13:18.213Z,19.10
2022-09-15T09:14:18.455Z,19.10
2022-09-15T09:15:18.672Z,19.11
2022-09-15T09:16:19.028Z,19.11
2022-09-15T09:17:19.213Z,19.11
2022-09-15T09:18:19.476Z,19.11
2022-09-15T09:19:19.719Z,19.13
2022-09-15T09:20:19.952Z,19.13
2022-09-15T09:21:20.195Z,19.13
2022-09-15T09:22:20.468Z,19.13
2022-09-15T09:23:20.706Z,19.11
2022-09-15T09:24:20.941Z,19.13
2022-09-15T09:25:27.529Z,19.10
2022-09-15T09:26:22.413Z,19.10
2022-09-15T09:27:21.706Z,19.10
2022-09-15T09:28:21.937Z,19.08
2022-09-15T09:29:22.198Z,19.06
2022-09-15T09:30:22.470Z,19.06
2022-09-15T09:31:22.789Z,19.06
2022-09-15T09:32:22.945Z,19.05
2022-09-15T09:33:23.223Z,19.08
2022-09-15T09:34:23.453Z,19.06
2022-09-15T09:35:23.715Z,19.06
2022-09-15T09:36:23.937Z,19.06
2022-09-15T09:37:24.176Z,19.08
2022-09-15T09:38:24.399Z,19.08
2022-09-15T09:39:24.735Z,19.10
2022-09-15T09:40:25.065Z,19.10
2022-09-15T09:41:25.236Z,19.10
2022-09-15T09:42:25.513Z,19.10
2022-09-15T09:43:25.751Z,19.11
2022-09-15T09:44:25.978Z,19.13
2022-09-15T09:45:26.222Z,19.11
2022-09-15T09:46:26.473Z,19.10
2022-09-15T09:47:26.742Z,19.08
2022-09-15T09:48:26.986Z,19.10
2022-09-15T09:49:27.229Z,18.99
2022-09-15T09:50:27.461Z,19.01
2022-09-15T09:51:27.730Z,18.98
2022-09-15T09:52:31.754Z,18.95
2022-09-15T09:53:28.303Z,18.92
2022-09-15T09:54:28.538Z,18.87
2022-09-15T09:55:28.818Z,18.82
2022-09-15T09:56:29.046Z,18.77
2022-09-15T09:57:29.289Z,18.73
2022-09-15T09:58:29.524Z,18.67
2022-09-15T09:59:29.756Z,18.59
2022-09-15T10:00:30.035Z,18.55
2022-09-15T10:01:30.353Z,18.49
2022-09-15T10:02:30.552Z,18.49
2022-09-15T10:03:33.054Z,18.49
2022-09-15T10:04:31.121Z,18.43
2022-09-15T10:05:31.367Z,18.44
2022-09-15T10:06:31.715Z,18.43
2022-09-15T10:07:31.958Z,18.46
2022-09-15T10:08:32.243Z,18.31
2022-09-15T10:09:33.532Z,18.18
2022-09-15T10:10:32.783Z,18.10
2022-09-15T10:11:33.047Z,18.09
2022-09-15T10:12:33.295Z,18.06
2022-09-15T10:13:33.549Z,18.07
2022-09-15T10:14:33.784Z,18.00
2022-09-15T10:15:34.069Z,18.02
2022-09-15T10:16:34.375Z,18.02
2022-09-15T10:17:34.616Z,18.02
2022-09-15T10:18:34.855Z,18.00
2022-09-15T10:19:35.087Z,17.99
2022-09-15T10:20:35.365Z,18.00
2022-09-15T10:21:35.589Z,18.02
2022-09-15T10:22:35.952Z,18.03
2022-09-15T10:23:36.226Z,18.03
2022-09-15T10:24:36.468Z,17.97
2022-09-15T10:25:57.650Z,17.97
2022-09-15T10:26:37.958Z,18.00
2022-09-15T10:27:37.259Z,18.02
2022-09-15T10:28:37.529Z,18.04
2022-09-15T10:29:37.776Z,18.07
2022-09-15T10:30:38.008Z,18.10
2022-09-15T10:31:38.299Z,18.18
2022-09-15T10:32:38.566Z,18.21
2022-09-15T10:33:38.848Z,18.21
2022-09-15T10:34:39.087Z,18.27
2022-09-15T10:35:39.426Z,18.24
2022-09-15T10:36:39.695Z,18.25
2022-09-15T10:37:39.923Z,18.27
2022-09-15T10:38:40.256Z,18.24
2022-09-15T10:39:40.502Z,18.27
2022-09-15T10:40:40.880Z,18.28
2022-09-15T10:41:41.081Z,18.31
2022-09-15T10:42:41.339Z,18.31
2022-09-15T10:43:41.572Z,18.36
2022-09-15T10:44:45.675Z,18.37
2022-09-15T10:45:42.240Z,18.39
2022-09-15T10:46:42.538Z,18.42
2022-09-15T10:47:42.786Z,18.46
2022-09-15T10:48:43.131Z,18.47
2022-09-15T10:49:43.378Z,18.54
2022-09-15T10:50:43.612Z,18.55
2022-09-15T10:51:43.972Z,18.59
2022-09-15T10:52:44.219Z,18.61
2022-09-15T10:53:44.491Z,18.64
2022-09-15T10:54:44.741Z,18.68
2022-09-15T10:55:53.407Z,18.74
2022-09-15T10:56:46.248Z,18.77
2022-09-15T10:57:45.529Z,18.82
2022-09-15T10:58:46.063Z,18.86
2022-09-15T10:59:46.029Z,18.86
2022-09-15T11:00:46.281Z,18.86
2022-09-15T11:01:46.605Z,18.83
2022-09-15T11:02:46.836Z,18.84
2022-09-15T11:03:47.201Z,18.86
2022-09-15T11:04:47.453Z,18.87
2022-09-15T11:05:47.688Z,18.87
2022-09-15T11:06:51.911Z,18.91
2022-09-15T11:07:48.328Z,18.91
2022-09-15T11:08:48.572Z,18.92
2022-09-15T11:09:48.800Z,18.94
2022-09-15T11:10:49.053Z,18.91
2022-09-15T11:11:49.286Z,18.97
2022-09-15T11:12:49.541Z,18.99
2022-09-15T11:13:49.808Z,19.02
2022-09-15T11:14:50.046Z,19.08
2022-09-15T11:15:50.335Z,19.11
2022-09-15T11:16:50.607Z,19.11
2022-09-15T11:17:50.830Z,19.14
2022-09-15T11:18:51.184Z,19.15
2022-09-15T11:19:51.443Z,19.18
2022-09-15T11:20:51.707Z,19.18
2022-09-15T11:21:51.969Z,19.23
2022-09-15T11:22:52.202Z,19.21
2022-09-15T11:23:52.580Z,19.21
2022-09-15T11:24:52.716Z,19.24
2022-09-15T11:25:52.977Z,19.23
2022-09-15T11:26:53.224Z,19.23
2022-09-15T11:27:53.494Z,19.23
2022-09-15T11:28:53.763Z,19.24
2022-09-15T11:29:54.010Z,19.25
2022-09-15T11:30:54.403Z,19.25
2022-09-15T11:31:54.762Z,19.28
2022-09-15T11:32:57.349Z,19.38
2022-09-15T11:33:55.184Z,19.50
2022-09-15T11:34:55.413Z,19.61
2022-09-15T11:35:55.677Z,19.83
2022-09-15T11:36:55.947Z,19.98
2022-09-15T11:37:56.192Z,20.08
2022-09-15T11:38:56.471Z,20.18
2022-09-15T11:39:56.767Z,20.25
2022-09-15T11:41:00.818Z,20.27
2022-09-15T11:41:57.341Z,20.33
2022-09-15T11:42:57.580Z,20.35
2022-09-15T11:43:57.857Z,20.30
2022-09-15T11:44:58.090Z,20.25
2022-09-15T11:45:58.323Z,20.16
2022-09-15T11:46:58.684Z,20.09
2022-09-15T11:47:58.861Z,20.05
2022-09-15T11:48:59.120Z,20.02
2022-09-15T11:49:59.342Z,19.94
2022-09-15T11:50:59.594Z,19.93
2022-09-15T11:51:59.813Z,19.93
2022-09-15T11:53:00.140Z,19.90
2022-09-15T11:54:00.407Z,19.91
2022-09-15T11:55:00.674Z,19.93
2022-09-15T11:56:00.921Z,19.93
2022-09-15T11:57:01.164Z,19.93
2022-09-15T11:58:01.408Z,19.94
2022-09-15T11:59:01.641Z,19.90
2022-09-15T12:00:01.983Z,19.90
2022-09-15T12:01:02.255Z,19.91
2022-09-15T12:02:02.509Z,19.91
2022-09-15T12:03:02.891Z,19.86
2022-09-15T12:04:03.133Z,19.79
2022-09-15T12:05:03.358Z,19.76
2022-09-15T12:06:03.621Z,19.75
2022-09-15T12:07:03.850Z,19.72
2022-09-15T12:08:04.085Z,19.73
2022-09-15T12:09:04.338Z,19.72
2022-09-15T12:10:04.631Z,19.69
2022-09-15T12:11:04.850Z,19.70
2022-09-15T12:12:05.107Z,19.68
2022-09-15T12:13:05.333Z,19.68
2022-09-15T12:14:05.599Z,19.70
2022-09-15T12:15:06.420Z,19.68
2022-09-15T12:16:06.138Z,19.68
2022-09-15T12:17:06.363Z,19.63
2022-09-15T12:18:27.443Z,19.63
2022-09-15T12:19:08.051Z,19.63
2022-09-15T12:20:07.327Z,19.60
2022-09-15T12:21:07.588Z,19.60
2022-09-15T12:22:07.836Z,19.60
2022-09-15T12:23:08.060Z,19.58
2022-09-15T12:24:08.312Z,19.57
2022-09-15T12:25:08.541Z,19.54
2022-09-15T12:26:08.809Z,19.54
2022-09-15T12:27:09.047Z,19.55
2022-09-15T12:28:09.271Z,19.58
2022-09-15T12:29:09.609Z,19.58
2022-09-15T12:30:09.862Z,19.55
2022-09-15T12:31:10.118Z,19.55
2022-09-15T12:32:10.379Z,19.53
2022-09-15T12:33:10.612Z,19.51
2022-09-15T12:34:10.840Z,19.48
2022-09-15T12:35:13.569Z,19.43
2022-09-15T12:36:11.417Z,19.36
2022-09-15T12:37:11.674Z,19.33
2022-09-15T12:38:11.912Z,19.29
2022-09-15T12:39:12.141Z,19.21
2022-09-15T12:40:12.461Z,19.17
2022-09-15T12:41:12.710Z,19.15
2022-09-15T12:42:12.945Z,19.20
2022-09-15T12:43:13.229Z,19.25
2022-09-15T12:44:13.486Z,19.31
2022-09-15T12:45:13.726Z,19.28
2022-09-15T12:46:14.059Z,19.29
2022-09-15T12:47:14.313Z,19.29
2022-09-15T12:48:14.597Z,19.23
2022-09-15T12:49:14.819Z,19.20
2022-09-15T12:50:15.148Z,19.17
2022-09-15T12:51:15.401Z,19.10
2022-09-15T12:52:15.632Z,19.02
2022-09-15T12:53:15.899Z,18.99
2022-09-15T12:54:16.133Z,18.92
2022-09-15T12:55:16.370Z,18.90
2022-09-15T12:56:16.607Z,18.90
2022-09-15T12:57:16.824Z,18.79
2022-09-15T12:58:17.094Z,18.74
2022-09-15T12:59:17.336Z,18.68
2022-09-15T13:00:17.577Z,18.65
2022-09-15T13:01:21.630Z,18.61
2022-09-15T13:02:18.182Z,18.58
2022-09-15T13:03:18.456Z,18.64
2022-09-15T13:04:18.626Z,18.68
2022-09-15T13:05:18.870Z,18.73
2022-09-15T13:06:19.104Z,18.77
2022-09-15T13:07:19.437Z,18.80
2022-09-15T13:08:19.710Z,18.83
2022-09-15T13:09:19.966Z,18.82
2022-09-15T13:10:20.255Z,18.86
2022-09-15T13:11:20.479Z,18.90
2022-09-15T13:12:20.824Z,18.92
2022-09-15T13:13:21.046Z,18.94
2022-09-15T13:14:21.315Z,18.95
2022-09-15T13:15:21.555Z,18.97
2022-09-15T13:16:21.801Z,18.95
2022-09-15T13:17:22.050Z,18.94
2022-09-15T13:18:22.295Z,18.98
2022-09-15T13:19:22.664Z,19.01
2022-09-15T13:20:22.889Z,19.08
2022-09-15T13:21:23.127Z,19.11
2022-09-15T13:22:23.372Z,19.11
2022-09-15T13:23:23.625Z,19.17
2022-09-15T13:24:23.887Z,19.35
2022-09-15T13:25:24.129Z,19.42
2022-09-15T13:26:24.384Z,19.42
2022-09-15T13:27:24.618Z,19.40
2022-09-15T13:28:24.847Z,19.39
2022-09-15T13:29:25.093Z,19.33
2022-09-15T13:30:25.332Z,19.28
2022-09-15T13:31:25.630Z,19.25
2022-09-15T13:32:25.913Z,19.23
2022-09-15T13:33:26.226Z,19.18
2022-09-15T13:35:27.732Z,19.18
2022-09-15T13:36:27.219Z,19.18
2022-09-15T13:38:31.950Z,19.14
2022-09-15T13:39:27.897Z,19.15
2022-09-15T13:40:28.261Z,19.17
2022-09-15T13:41:28.404Z,19.15
2022-09-15T13:42:28.647Z,19.17
2022-09-15T13:43:28.905Z,19.18
2022-09-15T13:44:29.178Z,19.20
2022-09-15T13:45:29.442Z,19.23
2022-09-15T13:46:29.954Z,19.21
2022-09-15T13:47:29.973Z,19.18
2022-09-15T13:48:30.301Z,19.15
2022-09-15T13:49:30.564Z,19.10
2022-09-15T13:50:30.808Z,19.08
2022-09-15T13:51:31.091Z,19.01
2022-09-15T13:52:31.324Z,18.99
2022-09-15T13:53:31.563Z,18.97
2022-09-15T13:54:31.797Z,18.92
2022-09-15T13:55:32.078Z,18.91
2022-09-15T13:56:32.317Z,18.87
2022-09-15T13:59:34.159Z,18.76
2022-09-15T14:00:33.471Z,18.70
2022-09-15T14:01:33.781Z,18.67
2022-09-15T14:02:34.061Z,18.65
2022-09-15T14:03:38.066Z,18.54
2022-09-15T14:04:34.625Z,18.43
2022-09-15T14:05:34.879Z,18.36
2022-09-15T14:06:35.147Z,18.33
2022-09-15T14:07:35.374Z,18.29
2022-09-15T14:08:35.628Z,18.22
2022-09-15T14:09:35.851Z,18.19
2022-09-15T14:10:36.201Z,18.19
2022-09-15T14:11:36.479Z,18.17
2022-09-15T14:12:36.741Z,18.17
2022-09-15T14:13:36.989Z,18.13
2022-09-15T14:14:37.243Z,18.10
2022-09-15T14:15:37.497Z,18.07
2022-09-15T14:16:37.847Z,18.06
2022-09-15T14:17:38.019Z,17.95
2022-09-15T14:18:38.271Z,17.88
2022-09-15T14:19:38.523Z,17.79
2022-09-15T14:20:38.776Z,17.78
2022-09-15T14:21:39.060Z,17.71
2022-09-15T14:22:39.344Z,17.70
2022-09-15T14:23:39.604Z,17.63
2022-09-15T14:24:39.892Z,17.62
2022-09-15T14:25:40.142Z,17.55
2022-09-15T14:26:40.458Z,17.59
2022-09-15T14:27:40.736Z,17.63
2022-09-15T14:28:41.034Z,17.66
2022-09-15T14:29:41.309Z,17.62
2022-09-15T14:30:41.613Z,17.63
2022-09-15T14:31:41.992Z,17.63
2022-09-15T14:32:42.181Z,17.64
2022-09-15T14:33:42.452Z,17.67
2022-09-15T14:34:42.760Z,17.67
2022-09-15T14:35:43.053Z,17.67
2022-09-15T14:36:43.400Z,17.69
2022-09-15T14:37:43.702Z,17.70
2022-09-15T14:38:44.060Z,17.70
2022-09-15T14:39:44.229Z,17.71
2022-09-15T14:40:44.663Z,17.73
2022-09-15T14:41:44.839Z,17.73
2022-09-15T14:42:45.965Z,17.74
2022-09-15T14:43:45.381Z,17.78
2022-09-15T14:46:02.746Z,17.84
2022-09-15T14:46:47.174Z,17.79
2022-09-15T14:47:46.449Z,17.82
2022-09-15T14:48:46.728Z,17.82
2022-09-15T14:49:47.012Z,17.84
2022-09-15T14:50:47.294Z,17.82
2022-09-15T14:51:47.574Z,17.85
2022-09-15T14:52:47.897Z,17.87
2022-09-15T14:53:48.221Z,17.91
2022-09-15T14:54:48.527Z,17.92
2022-09-15T14:55:48.823Z,17.94
2022-09-15T14:56:49.147Z,17.95
2022-09-15T14:57:49.427Z,17.97
2022-09-15T14:58:49.727Z,18.00
2022-09-15T14:59:50.003Z,18.00
2022-09-15T15:00:50.297Z,18.00
2022-09-15T15:01:50.627Z,18.00
2022-09-15T15:02:50.817Z,18.00
2022-09-15T15:03:51.100Z,17.99